Time;durP1;ratioP1;P1;durP2;ratioP2;P2;SDS_P1;SDS_P2;PMS_P1;PMS_P2;Temp;Humidity;BMP_temperature;BMP_pressure;BME280_temperature;BME280_humidity;BME280_pressure;Samples;Min_cycle;Max_cycle;Signal;HPM_P1;HPM_P2
2022/05/24 00:02:04;;;;;;;5.93;0.60;;;19.50;66.20;;;;;;4995381;28;20129;-68
2022/05/24 00:04:30;;;;;;;6.28;0.50;;;19.50;66.20;;;;;;4995279;28;20101;-68
2022/05/24 00:06:56;;;;;;;2.42;0.55;;;19.50;66.30;;;;;;4993918;28;20030;-68
2022/05/24 00:09:22;;;;;;;2.95;0.68;;;19.50;66.30;;;;;;4993916;28;20489;-68
2022/05/24 00:11:48;;;;;;;1.00;0.68;;;19.50;66.30;;;;;;4993735;28;20301;-68
2022/05/24 00:14:13;;;;;;;1.52;0.65;;;19.50;66.30;;;;;;4994101;28;20437;-68
2022/05/24 00:16:39;;;;;;;2.83;0.63;;;19.50;66.30;;;;;;4995195;28;20432;-68
2022/05/24 00:19:05;;;;;;;5.57;0.80;;;19.50;66.40;;;;;;4964052;28;20112;-68
2022/05/24 00:21:31;;;;;;;2.13;0.50;;;19.50;66.40;;;;;;4974374;28;20023;-68
2022/05/24 00:23:56;;;;;;;2.75;0.60;;;19.50;66.50;;;;;;4975471;28;20031;-68
2022/05/24 00:26:29;;;;;;;2.05;0.70;;;19.50;66.50;;;;;;4975536;28;20031;-68
2022/05/24 00:28:54;;;;;;;1.50;0.63;;;19.50;66.50;;;;;;4958712;28;20029;-68
2022/05/24 00:31:20;;;;;;;1.88;0.70;;;19.50;66.50;;;;;;4974336;28;20038;-68
2022/05/24 00:33:45;;;;;;;3.72;0.93;;;19.50;66.50;;;;;;4975456;28;20019;-68
2022/05/24 00:36:11;;;;;;;3.70;0.60;;;19.50;66.50;;;;;;4974032;28;20030;-68
2022/05/24 00:38:38;;;;;;;0.77;0.63;;;19.50;66.50;;;;;;4974113;28;20046;-68
2022/05/24 00:41:08;;;;;;;2.70;0.50;;;19.50;66.50;;;;;;4974163;28;20034;-68
2022/05/24 00:43:41;;;;;;;2.10;0.68;;;19.50;66.50;;;;;;4957743;28;20116;-68
2022/05/24 00:46:13;;;;;;;2.10;0.70;;;19.50;66.50;;;;;;4936398;28;1126036;-68
2022/05/24 00:48:45;;;;;;;4.80;0.65;;;19.50;66.60;;;;;;4959527;28;20054;-68
2022/05/24 00:51:11;;;;;;;4.22;0.55;;;19.50;66.50;;;;;;4975140;28;20030;-68
2022/05/24 00:53:41;;;;;;;4.10;0.60;;;19.50;66.60;;;;;;4974767;28;20462;-68
2022/05/24 00:56:08;;;;;;;3.10;0.77;;;19.50;66.50;;;;;;4975116;28;20564;-68
2022/05/24 00:58:50;;;;;;;7.47;1.20;;;19.50;66.60;;;;;;4975056;28;20030;-68
2022/05/24 01:01:40;;;;;;;2.22;0.65;;;19.50;66.60;;;;;;4975079;28;20035;-68
2022/05/24 01:04:06;;;;;;;4.50;0.55;;;19.50;66.50;;;;;;4971845;28;20043;-68
2022/05/24 01:06:32;;;;;;;1.70;0.50;;;19.50;66.60;;;;;;4974780;28;20054;-68
2022/05/24 01:08:59;;;;;;;2.60;0.70;;;19.60;66.70;;;;;;4974625;28;20050;-68
2022/05/24 01:11:25;;;;;;;6.68;0.60;;;19.50;66.70;;;;;;4974700;28;20027;-68
2022/05/24 01:13:51;;;;;;;3.58;0.70;;;19.60;66.80;;;;;;4974674;28;20027;-68
2022/05/24 01:16:16;;;;;;;3.15;0.88;;;19.50;66.70;;;;;;4974587;28;20023;-68
2022/05/24 01:18:42;;;;;;;1.17;0.63;;;19.50;66.70;;;;;;4974617;28;20019;-68
2022/05/24 01:21:09;;;;;;;2.00;0.70;;;19.50;66.70;;;;;;4974420;28;20041;-68
2022/05/24 01:24:04;;;;;;;3.88;0.60;;;19.50;67.70;;;;;;4958163;28;20034;-68
2022/05/24 01:26:41;;;;;;;4.53;0.50;;;19.50;66.60;;;;;;4974619;28;20027;-68
2022/05/24 01:29:08;;;;;;;1.52;0.93;;;19.50;66.70;;;;;;4975660;28;20027;-68
2022/05/24 01:37:06;;;;;;;1.27;0.75;;;19.50;66.70;;;;;;4960926;28;20444;-68
2022/05/24 01:39:32;;;;;;;1.42;0.60;;;19.50;66.70;;;;;;4975361;28;20110;-68
2022/05/24 01:41:58;;;;;;;1.95;0.82;;;19.50;66.70;;;;;;4974216;28;20107;-68
2022/05/24 01:44:40;;;;;;;5.70;0.75;;;19.50;66.70;;;;;;4957959;28;20031;-68
2022/05/24 01:47:06;;;;;;;1.27;0.55;;;19.50;66.70;;;;;;4959176;28;20045;-68
2022/05/24 01:49:34;;;;;;;2.13;0.65;;;19.50;66.80;;;;;;4975119;28;20027;-68
2022/05/24 01:52:16;;;;;;;2.38;0.65;;;19.50;66.70;;;;;;4973937;28;20030;-68
2022/05/24 01:54:47;;;;;;;1.38;0.38;;;19.50;66.70;;;;;;4973988;28;20026;-68
2022/05/24 01:57:25;;;;;;;1.10;0.50;;;19.50;66.80;;;;;;4974016;28;20490;-68
2022/05/24 01:59:51;;;;;;;2.33;0.57;;;19.50;66.80;;;;;;4973790;28;20019;-68
2022/05/24 02:02:16;;;;;;;1.70;0.80;;;19.50;66.80;;;;;;4973743;28;20478;-68
2022/05/24 02:04:42;;;;;;;4.93;1.00;;;19.50;66.80;;;;;;4973888;28;20033;-68
2022/05/24 02:07:09;;;;;;;2.78;0.60;;;19.50;66.90;;;;;;4973526;28;20102;-68
2022/05/24 02:09:36;;;;;;;2.38;1.00;;;19.50;66.90;;;;;;4973590;28;20054;-68
2022/05/24 02:12:28;;;;;;;3.30;0.70;;;19.50;66.90;;;;;;4973594;28;20116;-68
2022/05/24 02:14:57;;;;;;;2.37;0.50;;;19.50;66.90;;;;;;4970758;28;20486;-68
2022/05/24 02:17:29;;;;;;;5.82;0.93;;;19.50;67.00;;;;;;4972944;28;20023;-68
2022/05/24 02:19:56;;;;;;;5.60;0.80;;;19.50;67.00;;;;;;4973171;28;20488;-68
2022/05/24 02:22:26;;;;;;;4.43;0.85;;;19.50;67.00;;;;;;4973266;28;20019;-68
2022/05/24 02:24:58;;;;;;;1.52;0.50;;;19.50;67.00;;;;;;4973304;28;20042;-68
2022/05/24 02:27:24;;;;;;;3.60;0.82;;;19.50;67.00;;;;;;4974548;28;20054;-68
2022/05/24 02:29:50;;;;;;;4.68;0.55;;;19.50;67.00;;;;;;4957369;28;20112;-68
2022/05/24 02:32:15;;;;;;;1.75;0.47;;;19.50;67.00;;;;;;4973028;28;20486;-68
2022/05/24 02:34:41;;;;;;;3.88;0.60;;;19.50;67.00;;;;;;4972984;28;20434;-68
2022/05/24 02:37:07;;;;;;;2.25;0.68;;;19.50;66.90;;;;;;4973042;28;20150;-68
2022/05/24 02:41:28;;;;;;;2.25;0.73;;;19.50;67.00;;;;;;4974495;28;20027;-68
2022/05/24 02:42:18;;;;;;;3.05;0.45;;;19.50;66.90;;;;;;4973968;28;20038;-68
2022/05/24 02:44:44;;;;;;;0.90;0.47;;;19.50;67.00;;;;;;4972933;28;20042;-68
2022/05/24 02:47:10;;;;;;;3.10;0.70;;;19.50;66.90;;;;;;4974271;28;20066;-68
2022/05/24 02:49:35;;;;;;;3.45;0.77;;;19.50;66.90;;;;;;4974020;28;20109;-68
2022/05/24 02:52:01;;;;;;;3.58;0.70;;;19.50;66.90;;;;;;4973017;28;20031;-68
2022/05/24 02:54:26;;;;;;;5.93;1.00;;;19.50;66.90;;;;;;4972871;28;20043;-68
2022/05/24 02:56:52;;;;;;;3.92;0.50;;;19.50;66.90;;;;;;4973843;28;20129;-68
2022/05/24 02:59:18;;;;;;;1.40;0.57;;;19.50;66.90;;;;;;4974083;28;20026;-68
2022/05/24 03:01:43;;;;;;;1.60;1.13;;;19.50;67.00;;;;;;4973940;28;20054;-68
2022/05/24 03:04:09;;;;;;;3.22;0.70;;;19.50;66.90;;;;;;4972551;28;20500;-68
2022/05/24 03:09:34;;;;;;;2.92;0.80;;;19.50;66.90;;;;;;4973955;28;20073;-68
2022/05/24 03:14:43;;;;;;;2.95;0.52;;;19.50;66.90;;;;;;4973008;28;20037;-68
2022/05/24 03:17:09;;;;;;;1.45;0.70;;;19.50;66.90;;;;;;4972687;28;20018;-68
2022/05/24 03:19:35;;;;;;;2.60;0.68;;;19.50;66.90;;;;;;4973336;28;20027;-68
2022/05/24 03:22:00;;;;;;;1.92;0.68;;;19.50;67.00;;;;;;4973654;28;20026;-68
2022/05/24 03:24:26;;;;;;;0.60;0.40;;;19.50;67.00;;;;;;4972503;28;20034;-68
2022/05/24 03:26:52;;;;;;;1.58;0.60;;;19.50;66.90;;;;;;4973288;28;20545;-68
2022/05/24 03:29:17;;;;;;;2.13;0.60;;;19.50;66.90;;;;;;4973005;28;20034;-68
2022/05/24 03:31:43;;;;;;;4.20;0.68;;;19.50;66.90;;;;;;4973509;28;20027;-68
2022/05/24 03:34:08;;;;;;;2.92;0.52;;;19.50;66.90;;;;;;4973361;28;20461;-68
2022/05/24 03:36:34;;;;;;;1.88;0.35;;;19.50;66.90;;;;;;4973766;28;20019;-68
2022/05/24 03:39:00;;;;;;;3.03;0.60;;;19.50;66.90;;;;;;4973456;28;20027;-68
2022/05/24 03:41:25;;;;;;;1.10;0.70;;;19.50;66.90;;;;;;4972356;28;20031;-68
2022/05/24 03:43:51;;;;;;;1.40;0.60;;;19.50;66.90;;;;;;4972182;28;20089;-68
2022/05/24 03:46:17;;;;;;;3.00;0.70;;;19.50;67.00;;;;;;4973422;28;20054;-68
2022/05/24 03:48:42;;;;;;;1.80;0.35;;;19.50;67.00;;;;;;4956078;28;20031;-68
2022/05/24 03:51:08;;;;;;;1.98;0.77;;;19.50;67.00;;;;;;4956104;28;20027;-68
2022/05/24 03:53:34;;;;;;;2.13;0.60;;;19.50;67.00;;;;;;4973574;28;20054;-68
2022/05/24 03:55:59;;;;;;;2.08;0.50;;;19.50;67.00;;;;;;4972227;28;20095;-68
2022/05/24 03:58:25;;;;;;;5.22;0.50;;;19.50;67.00;;;;;;4972410;28;20031;-68
2022/05/24 04:00:51;;;;;;;2.20;0.60;;;19.50;67.00;;;;;;4973362;28;20038;-68
2022/05/24 04:03:17;;;;;;;4.10;1.33;;;19.50;67.00;;;;;;4971850;28;20031;-68
2022/05/24 04:05:42;;;;;;;1.42;0.60;;;19.50;67.00;;;;;;4956196;28;20122;-68
2022/05/24 04:08:08;;;;;;;2.15;0.60;;;19.40;67.00;;;;;;4973245;28;20046;-68
2022/05/24 04:10:34;;;;;;;3.70;0.80;;;19.50;67.00;;;;;;4972219;28;20027;-68
2022/05/24 04:13:00;;;;;;;3.05;0.60;;;19.40;66.90;;;;;;4972954;28;20027;-68
2022/05/24 04:15:26;;;;;;;1.33;0.45;;;19.40;67.00;;;;;;4971981;28;20074;-68
2022/05/24 04:17:52;;;;;;;1.23;0.40;;;19.40;67.00;;;;;;4971911;28;20033;-68
2022/05/24 04:20:18;;;;;;;2.63;0.60;;;19.40;67.00;;;;;;4955911;28;20023;-68
2022/05/24 04:22:44;;;;;;;1.45;0.40;;;19.40;67.00;;;;;;4956580;28;20049;-68
2022/05/24 04:25:10;;;;;;;1.17;0.63;;;19.40;67.00;;;;;;4952831;29;20446;-68
2022/05/24 04:27:36;;;;;;;3.05;0.43;;;19.40;67.00;;;;;;4952564;29;20031;-68
2022/05/24 04:30:02;;;;;;;2.00;0.50;;;19.40;67.00;;;;;;4952645;29;20098;-68
2022/05/24 04:32:28;;;;;;;6.15;0.82;;;19.40;67.00;;;;;;4952513;29;20030;-68
2022/05/24 04:34:54;;;;;;;2.30;0.80;;;19.40;67.00;;;;;;4953842;29;20098;-68
2022/05/24 04:37:19;;;;;;;2.08;0.52;;;19.40;67.00;;;;;;4953724;29;20442;-68
2022/05/24 04:39:45;;;;;;;3.78;0.63;;;19.40;67.00;;;;;;4955496;28;20024;-68
2022/05/24 04:42:19;;;;;;;1.35;0.52;;;19.40;67.00;;;;;;4955936;29;20086;-68
2022/05/24 04:44:46;;;;;;;1.05;0.55;;;19.40;67.00;;;;;;4955855;29;20082;-68
2022/05/24 04:47:13;;;;;;;2.15;0.60;;;19.40;67.00;;;;;;4955975;29;20023;-68
2022/05/24 04:49:43;;;;;;;1.50;0.57;;;19.30;67.00;;;;;;4957396;29;20363;-68
2022/05/24 04:52:10;;;;;;;0.60;0.45;;;19.40;67.00;;;;;;4955615;29;20114;-68
2022/05/24 04:54:37;;;;;;;1.85;0.60;;;19.40;67.10;;;;;;4955878;29;20016;-68
2022/05/24 04:57:03;;;;;;;2.97;0.80;;;19.30;67.10;;;;;;4956935;29;20429;-68
2022/05/24 04:59:29;;;;;;;0.90;0.38;;;19.40;67.10;;;;;;4955645;29;20019;-68
2022/05/24 05:01:55;;;;;;;1.33;0.60;;;19.40;67.20;;;;;;4955776;29;20054;-68
2022/05/24 05:04:20;;;;;;;1.25;0.45;;;19.40;67.10;;;;;;4955619;29;20042;-68
2022/05/24 05:06:46;;;;;;;4.07;0.40;;;19.40;67.10;;;;;;4955694;29;20023;-68
2022/05/24 05:09:12;;;;;;;0.95;0.38;;;19.30;67.10;;;;;;4955568;29;20027;-69
2022/05/24 05:11:38;;;;;;;1.35;0.43;;;19.40;67.10;;;;;;4955639;29;20043;-69
2022/05/24 05:14:04;;;;;;;1.58;0.50;;;19.40;67.10;;;;;;4955092;29;20026;-69
2022/05/24 05:16:30;;;;;;;1.70;0.45;;;19.30;67.10;;;;;;4955710;29;20505;-69
2022/05/24 05:18:56;;;;;;;2.80;0.57;;;19.30;67.10;;;;;;4955192;29;20019;-68
2022/05/24 05:21:21;;;;;;;2.20;0.47;;;19.30;67.10;;;;;;4972022;28;20030;-68
2022/05/24 05:23:49;;;;;;;4.15;0.70;;;19.30;67.20;;;;;;4972504;28;20030;-68
2022/05/24 05:26:15;;;;;;;1.27;0.43;;;19.30;67.30;;;;;;4972452;28;20077;-67
2022/05/24 05:28:41;;;;;;;2.30;0.70;;;19.30;66.90;;;;;;4974006;28;20130;-68
2022/05/24 05:31:17;;;;;;;4.10;0.43;;;19.30;66.60;;;;;;4974937;28;20545;-68
2022/05/24 05:33:43;;;;;;;4.68;0.98;;;19.30;66.50;;;;;;4974916;28;20536;-68
2022/05/24 05:36:09;;;;;;;2.40;0.90;;;19.30;66.60;;;;;;4974871;28;20027;-68
2022/05/24 05:38:35;;;;;;;2.60;0.60;;;19.30;65.90;;;;;;4976376;28;20545;-68
2022/05/24 05:41:01;;;;;;;3.30;0.50;;;19.20;65.20;;;;;;4975006;28;20113;-68
2022/05/24 05:43:27;;;;;;;6.43;0.50;;;19.20;64.70;;;;;;4973904;28;20023;-69
2022/05/24 05:45:58;;;;;;;2.03;0.50;;;19.20;64.60;;;;;;4974087;28;20055;-69
2022/05/24 05:48:23;;;;;;;5.35;0.60;;;19.10;64.10;;;;;;4974069;28;20026;-69
2022/05/24 05:50:49;;;;;;;2.63;0.60;;;19.10;64.20;;;;;;4973234;28;20038;-69
2022/05/24 05:53:16;;;;;;;3.25;0.80;;;19.10;63.90;;;;;;4974368;28;20023;-69
2022/05/24 05:55:41;;;;;;;4.32;0.68;;;19.10;63.50;;;;;;4973946;28;20409;-69
2022/05/24 05:58:08;;;;;;;1.75;0.57;;;19.00;63.50;;;;;;4973755;28;20030;-69
2022/05/24 06:00:34;;;;;;;6.15;0.80;;;19.00;63.50;;;;;;4974280;28;20485;-69
2022/05/24 06:03:00;;;;;;;3.95;0.70;;;19.00;63.20;;;;;;4973720;28;20545;-69
2022/05/24 06:05:26;;;;;;;3.10;0.75;;;19.00;63.20;;;;;;4973900;28;20062;-69
2022/05/24 06:07:53;;;;;;;3.15;0.60;;;19.00;63.30;;;;;;4973793;28;20363;-68
2022/05/24 06:10:19;;;;;;;4.45;0.80;;;18.90;63.10;;;;;;4973837;28;20069;-69
2022/05/24 06:12:45;;;;;;;18.83;1.90;;;19.00;63.10;;;;;;4974135;28;20030;-70
2022/05/24 06:15:10;;;;;;;16.08;1.70;;;18.90;63.30;;;;;;4973452;28;20141;-70
2022/05/24 06:17:44;;;;;;;13.20;1.63;;;18.90;63.30;;;;;;4973497;28;20385;-70
2022/05/24 06:20:10;;;;;;;11.38;1.83;;;18.90;63.50;;;;;;4973030;28;20501;-70
2022/05/24 06:22:35;;;;;;;17.73;1.70;;;18.90;63.60;;;;;;4974524;28;20425;-70
2022/05/24 06:25:01;;;;;;;12.30;1.77;;;18.90;63.70;;;;;;4973274;28;20038;-69
2022/05/24 06:27:26;;;;;;;5.95;1.35;;;18.90;63.70;;;;;;4974564;28;20027;-69
2022/05/24 06:29:52;;;;;;;14.27;1.58;;;18.90;63.80;;;;;;4974733;28;20038;-69
2022/05/24 06:32:18;;;;;;;9.45;1.30;;;18.90;63.90;;;;;;4973256;28;20034;-69
2022/05/24 06:34:45;;;;;;;17.35;1.60;;;18.90;63.90;;;;;;4973159;28;20027;-70
2022/05/24 06:37:11;;;;;;;10.55;1.60;;;18.90;63.70;;;;;;4973205;28;20019;-69
2022/05/24 06:39:37;;;;;;;10.98;1.70;;;18.80;63.50;;;;;;4973065;28;20393;-69
2022/05/24 06:42:02;;;;;;;7.32;1.17;;;18.70;63.40;;;;;;4972994;28;20030;-70
2022/05/24 06:44:28;;;;;;;10.18;1.98;;;18.70;63.00;;;;;;4973999;28;20034;-69
2022/05/24 06:46:54;;;;;;;7.82;1.38;;;18.70;63.00;;;;;;4974180;28;20548;-69
2022/05/24 06:49:20;;;;;;;7.57;1.60;;;18.60;62.70;;;;;;4974173;28;20030;-69
2022/05/24 06:51:45;;;;;;;8.73;1.23;;;18.60;63.00;;;;;;4974062;28;20038;-70
2022/05/24 06:54:11;;;;;;;9.73;1.73;;;18.60;62.90;;;;;;4974144;28;20497;-69
2022/05/24 06:56:37;;;;;;;10.48;1.40;;;18.60;63.10;;;;;;4972991;28;20434;-69
2022/05/24 07:04:30;;;;;;;8.55;1.13;;;18.50;62.90;;;;;;4974126;28;20381;-69
2022/05/24 07:06:56;;;;;;;7.35;1.63;;;18.50;62.50;;;;;;4956771;28;20027;-69
2022/05/24 07:09:23;;;;;;;6.95;1.20;;;18.50;62.50;;;;;;4973894;28;20046;-69
2022/05/24 07:11:49;;;;;;;6.15;1.42;;;18.40;62.70;;;;;;4972342;28;20512;-69
2022/05/24 07:14:15;;;;;;;7.25;1.13;;;18.40;62.60;;;;;;4972471;28;20477;-69
2022/05/24 07:16:41;;;;;;;10.73;1.45;;;18.40;62.50;;;;;;4972936;28;20363;-69
2022/05/24 07:19:06;;;;;;;4.75;0.90;;;18.40;62.60;;;;;;4973580;28;20042;-69
2022/05/24 07:21:32;;;;;;;6.43;1.05;;;18.30;62.60;;;;;;4973570;28;20026;-69
2022/05/24 07:23:57;;;;;;;5.03;1.02;;;18.40;62.70;;;;;;4973625;28;20037;-70
2022/05/24 07:26:24;;;;;;;5.65;1.00;;;18.30;62.70;;;;;;4972252;28;20039;-69
2022/05/24 07:28:50;;;;;;;10.55;1.42;;;18.30;62.60;;;;;;4973622;28;20030;-70
2022/05/24 07:31:16;;;;;;;4.43;1.05;;;18.20;62.40;;;;;;4973607;28;20022;-69
2022/05/24 07:33:42;;;;;;;5.32;1.10;;;18.30;63.60;;;;;;4973608;28;20050;-69
2022/05/24 07:36:07;;;;;;;9.50;1.15;;;18.20;62.70;;;;;;4973586;28;20018;-70
2022/05/24 07:38:33;;;;;;;7.85;1.27;;;18.20;62.30;;;;;;4956483;28;20035;-69
2022/05/24 07:46:27;;;;;;;9.18;1.00;;;18.10;62.40;;;;;;4972477;28;20130;-69
2022/05/24 07:48:53;;;;;;;9.15;1.17;;;18.10;62.60;;;;;;4956440;28;20105;-70
2022/05/24 07:51:19;;;;;;;7.50;1.00;;;18.10;62.60;;;;;;4972178;28;20031;-69
2022/05/24 07:53:44;;;;;;;4.65;1.50;;;18.10;62.60;;;;;;4972129;28;20031;-69
2022/05/24 07:56:10;;;;;;;4.35;1.10;;;18.10;62.20;;;;;;4972016;28;20043;-70
2022/05/24 07:58:36;;;;;;;4.95;0.63;;;18.10;62.00;;;;;;4972495;28;20545;-69
2022/05/24 08:01:01;;;;;;;6.25;0.98;;;18.00;62.00;;;;;;4973642;28;20109;-69
2022/05/24 08:03:27;;;;;;;8.23;1.15;;;18.00;62.00;;;;;;4973258;28;20035;-69
2022/05/24 08:05:53;;;;;;;5.30;1.00;;;17.90;61.90;;;;;;4972142;28;20027;-69
2022/05/24 08:08:19;;;;;;;7.43;1.20;;;17.90;61.90;;;;;;4971922;28;20031;-69
2022/05/24 08:10:45;;;;;;;8.18;1.30;;;17.90;61.70;;;;;;4972114;28;20037;-69
2022/05/24 08:13:13;;;;;;;5.68;1.05;;;17.90;61.90;;;;;;4956108;28;20027;-69
2022/05/24 08:15:38;;;;;;;6.60;1.10;;;17.90;62.10;;;;;;4959378;28;20042;-69
2022/05/24 08:18:04;;;;;;;6.13;1.17;;;17.90;62.20;;;;;;4975681;28;20437;-69
2022/05/24 08:20:30;;;;;;;4.45;1.05;;;17.90;62.30;;;;;;4975735;28;20023;-70
2022/05/24 08:22:56;;;;;;;7.97;0.85;;;17.90;62.20;;;;;;4975473;28;20031;-69
2022/05/24 08:25:21;;;;;;;4.20;0.90;;;17.90;62.10;;;;;;4975564;28;20504;-69
2022/05/24 08:27:47;;;;;;;7.13;0.80;;;17.90;62.20;;;;;;4975564;28;20031;-69
2022/05/24 08:30:14;;;;;;;7.18;1.05;;;17.90;62.00;;;;;;4975360;28;20493;-69
2022/05/24 08:32:40;;;;;;;2.30;0.82;;;17.90;62.00;;;;;;4959626;28;20105;-69
2022/05/24 08:35:07;;;;;;;3.88;0.80;;;17.80;61.60;;;;;;4959545;28;20404;-69
2022/05/24 08:37:32;;;;;;;3.63;0.60;;;17.80;61.80;;;;;;4959262;28;20107;-69
2022/05/24 08:39:59;;;;;;;4.80;0.80;;;17.80;61.70;;;;;;4976919;28;20030;-69
2022/05/24 08:42:37;;;;;;;4.05;1.05;;;17.80;62.00;;;;;;4976357;28;20037;-69
2022/05/24 08:48:23;;;;;;;4.93;0.95;;;17.80;61.60;;;;;;4961966;28;20045;-69
2022/05/24 08:51:16;;;;;;;3.50;0.80;;;17.70;62.80;;;;;;4961677;28;20046;-69
2022/05/24 08:53:45;;;;;;;6.82;0.73;;;17.70;62.10;;;;;;4975084;28;20077;-69
2022/05/24 08:56:18;;;;;;;6.70;1.27;;;17.70;62.20;;;;;;4959404;28;20027;-69
2022/05/24 08:58:55;;;;;;;8.43;1.15;;;17.70;62.30;;;;;;4975150;28;20023;-69
2022/05/24 09:01:26;;;;;;;4.30;0.98;;;17.70;62.70;;;;;;4959535;28;20371;-69
2022/05/24 09:03:51;;;;;;;5.68;0.90;;;17.70;62.80;;;;;;4975094;28;20046;-69
2022/05/24 09:06:39;;;;;;;3.53;0.85;;;17.70;62.70;;;;;;4958413;28;20061;-69
2022/05/24 09:09:23;;;;;;;3.55;0.73;;;17.70;62.70;;;;;;4975973;28;20485;-69
2022/05/24 09:12:07;;;;;;;7.45;1.02;;;17.70;62.80;;;;;;4975957;28;20037;-69
2022/05/24 09:14:44;;;;;;;8.00;0.85;;;17.70;62.80;;;;;;4975978;28;20473;-69
2022/05/24 09:17:25;;;;;;;3.25;0.68;;;17.70;62.70;;;;;;4974633;28;20161;-69
2022/05/24 09:19:51;;;;;;;4.30;1.02;;;17.70;62.80;;;;;;4975752;28;20062;-69
2022/05/24 09:22:21;;;;;;;4.18;0.70;;;17.70;62.20;;;;;;4975570;28;20058;-69
2022/05/24 09:24:49;;;;;;;3.63;0.80;;;17.60;62.00;;;;;;4975793;28;20035;-69
2022/05/24 09:27:23;;;;;;;4.30;0.70;;;17.60;61.60;;;;;;4975785;28;20019;-69
2022/05/24 09:30:05;;;;;;;3.97;0.80;;;17.60;61.50;;;;;;4959425;28;20382;-69
2022/05/24 09:32:34;;;;;;;6.68;1.13;;;17.50;61.40;;;;;;4958400;28;20143;-69
2022/05/24 09:35:04;;;;;;;5.15;0.82;;;17.50;61.50;;;;;;4974270;28;20102;-69
2022/05/24 09:37:30;;;;;;;3.70;0.60;;;17.50;61.90;;;;;;4974305;28;20026;-69
2022/05/24 09:40:02;;;;;;;4.65;0.80;;;17.60;61.80;;;;;;4975435;28;20023;-69
2022/05/24 09:42:33;;;;;;;4.10;0.80;;;17.60;62.00;;;;;;4958325;28;20077;-69
2022/05/24 09:45:21;;;;;;;4.30;0.80;;;17.60;62.00;;;;;;4958319;28;20181;-69
2022/05/24 09:47:49;;;;;;;4.03;0.95;;;17.60;62.00;;;;;;4974186;28;20031;-69
2022/05/24 09:50:18;;;;;;;9.20;1.17;;;17.60;62.00;;;;;;4974934;28;20027;-69
2022/05/24 09:53:12;;;;;;;5.22;1.20;;;17.60;61.90;;;;;;4975166;28;20081;-69
2022/05/24 09:55:38;;;;;;;4.68;0.70;;;17.60;62.00;;;;;;4973998;28;20026;-69
2022/05/24 09:58:29;;;;;;;2.83;0.60;;;17.60;62.00;;;;;;4975186;28;20077;-69
2022/05/24 10:01:08;;;;;;;2.35;0.50;;;17.60;62.00;;;;;;4973886;28;20030;-69
2022/05/24 10:03:47;;;;;;;5.70;0.73;;;17.50;61.80;;;;;;4973754;28;20030;-69
2022/05/24 10:06:29;;;;;;;4.68;0.80;;;17.50;61.70;;;;;;4973863;28;20064;-69
2022/05/24 10:09:10;;;;;;;5.88;0.60;;;17.50;61.70;;;;;;4973863;28;20106;-69
2022/05/24 10:11:47;;;;;;;4.53;0.57;;;17.50;61.40;;;;;;4974664;28;20027;-69
2022/05/24 10:14:36;;;;;;;5.00;1.00;;;17.50;61.40;;;;;;4958274;28;20027;-69
2022/05/24 10:17:18;;;;;;;3.05;0.70;;;17.50;61.30;;;;;;4974791;28;20027;-69
2022/05/24 10:20:16;;;;;;;6.30;0.90;;;17.50;60.90;;;;;;4973430;28;20031;-69
2022/05/24 10:22:59;;;;;;;4.30;0.60;;;17.50;61.20;;;;;;4958503;28;20289;-69
2022/05/24 10:25:35;;;;;;;;;;;17.50;60.80;;;;;;4954774;29;20031;-69
2022/05/24 10:28:19;;;;;;;4.35;0.88;;;17.50;60.70;;;;;;4955364;28;20426;-69
2022/05/24 10:30:55;;;;;;;4.25;0.85;;;17.40;60.50;;;;;;4953946;29;20561;-69
2022/05/24 10:39:31;;;;;;;2.92;1.13;;;17.40;60.60;;;;;;4955447;29;20050;-69
2022/05/24 10:42:18;;;;;;;4.53;0.88;;;17.40;60.30;;;;;;4954082;29;20110;-69
2022/05/24 10:44:53;;;;;;;3.03;0.70;;;17.40;60.40;;;;;;4954878;29;20055;-69
2022/05/24 10:47:34;;;;;;;4.22;0.70;;;17.40;60.40;;;;;;4953499;29;20020;-69
2022/05/24 10:50:37;;;;;;;6.85;0.77;;;17.40;60.30;;;;;;4955203;29;20446;-69
2022/05/24 10:53:53;;;;;;;3.95;0.80;;;17.40;60.00;;;;;;4952646;29;20511;-69
2022/05/24 10:56:24;;;;;;;3.40;0.70;;;17.40;60.00;;;;;;4952461;29;20043;-69
2022/05/24 10:58:50;;;;;;;4.90;0.60;;;17.40;60.10;;;;;;4952617;29;20031;-69
2022/05/24 11:01:26;;;;;;;5.38;1.00;;;17.40;60.20;;;;;;4952612;29;20155;-69
2022/05/24 11:03:57;;;;;;;4.15;0.80;;;17.40;60.20;;;;;;4952350;29;20756;-69
2022/05/24 11:06:30;;;;;;;4.72;0.50;;;17.40;60.10;;;;;;4952424;29;20054;-69
2022/05/24 11:08:58;;;;;;;2.67;0.57;;;17.40;60.10;;;;;;4952571;29;20050;-69
2022/05/24 11:11:32;;;;;;;3.53;0.52;;;17.40;59.80;;;;;;4952259;29;20043;-69
2022/05/24 11:14:31;;;;;;;4.25;0.60;;;17.40;59.90;;;;;;4952601;29;20085;-69
2022/05/24 11:16:57;;;;;;;2.88;0.65;;;17.40;59.70;;;;;;4952187;29;20035;-69
2022/05/24 11:19:31;;;;;;;3.90;0.50;;;17.40;59.80;;;;;;4952696;28;20095;-69
2022/05/24 11:22:16;;;;;;;4.70;0.90;;;17.30;59.90;;;;;;4956619;28;20027;-69
2022/05/24 11:25:25;;;;;;;3.97;0.65;;;17.40;60.00;;;;;;4971793;28;20490;-69
2022/05/24 11:27:53;;;;;;;2.00;0.43;;;17.40;60.00;;;;;;4971683;28;20046;-69
2022/05/24 11:30:30;;;;;;;5.03;0.90;;;17.40;59.60;;;;;;4932847;29;20576;-69
2022/05/24 11:33:02;;;;;;;4.32;1.05;;;17.40;59.30;;;;;;4973423;28;20034;-69
2022/05/24 11:35:32;;;;;;;2.10;0.57;;;17.40;59.60;;;;;;4973445;28;20019;-69
2022/05/24 11:38:20;;;;;;;5.07;0.50;;;17.40;59.30;;;;;;4972549;28;20031;-69
2022/05/24 11:40:54;;;;;;;2.42;0.60;;;17.30;59.50;;;;;;4972484;28;20379;-69
2022/05/24 11:43:49;;;;;;;2.10;0.47;;;17.40;59.30;;;;;;4973415;28;20065;-69
2022/05/24 11:46:33;;;;;;;2.42;0.77;;;17.30;59.50;;;;;;4967366;28;20042;-69
2022/05/24 11:49:04;;;;;;;6.53;0.90;;;17.40;59.50;;;;;;4974319;28;20027;-69
2022/05/24 11:51:40;;;;;;;3.88;0.40;;;17.40;59.40;;;;;;4976048;28;20030;-69
2022/05/24 11:54:15;;;;;;;4.63;0.55;;;17.40;59.30;;;;;;4977629;28;20027;-69
2022/05/24 11:56:51;;;;;;;4.35;0.82;;;17.40;59.50;;;;;;4976580;28;20014;-69
2022/05/24 11:59:36;;;;;;;5.05;0.50;;;17.40;59.30;;;;;;4961326;28;20055;-69
2022/05/24 12:02:02;;;;;;;5.05;0.90;;;17.40;59.30;;;;;;4976242;28;20037;-69
2022/05/24 12:09:59;;;;;;;5.00;0.68;;;17.40;59.00;;;;;;4977163;28;20115;-69
2022/05/24 12:12:32;;;;;;;4.40;0.75;;;17.40;59.10;;;;;;4976843;28;20045;-69
2022/05/24 12:15:18;;;;;;;4.38;1.10;;;17.40;59.00;;;;;;4975770;28;20026;-69
2022/05/24 12:17:46;;;;;;;4.32;0.50;;;17.40;59.10;;;;;;4975777;28;20023;-69
2022/05/24 12:20:33;;;;;;;3.58;0.73;;;17.40;59.00;;;;;;4976794;28;20038;-69
2022/05/24 12:23:04;;;;;;;2.95;0.50;;;17.40;59.10;;;;;;4959651;28;20028;-69
2022/05/24 12:26:07;;;;;;;6.50;0.95;;;17.40;59.20;;;;;;4957493;29;20031;-70
2022/05/24 12:28:36;;;;;;;6.07;0.85;;;17.40;59.00;;;;;;4957522;29;20114;-69
2022/05/24 12:31:13;;;;;;;3.50;0.55;;;17.40;59.30;;;;;;4957290;29;20110;-70
2022/05/24 12:34:00;;;;;;;3.80;0.55;;;17.40;59.20;;;;;;4957270;29;20028;-69
2022/05/24 12:36:44;;;;;;;4.65;0.60;;;17.40;59.20;;;;;;4956021;29;20478;-69
2022/05/24 12:39:09;;;;;;;3.20;0.55;;;17.40;59.10;;;;;;4957358;29;20027;-69
2022/05/24 12:41:46;;;;;;;4.68;0.80;;;17.40;59.10;;;;;;4957101;29;20028;-69
2022/05/24 12:44:30;;;;;;;2.65;0.47;;;17.40;59.00;;;;;;4955856;29;20027;-69
2022/05/24 12:47:11;;;;;;;4.25;0.80;;;17.40;58.80;;;;;;4955954;29;20530;-69
2022/05/24 12:49:58;;;;;;;3.20;0.60;;;17.40;58.80;;;;;;4955814;29;20154;-69
2022/05/24 12:52:28;;;;;;;3.08;0.80;;;17.40;58.90;;;;;;4957006;29;20039;-69
2022/05/24 12:55:01;;;;;;;5.47;0.57;;;17.40;58.70;;;;;;4955880;29;20019;-69
2022/05/24 12:57:34;;;;;;;4.35;0.90;;;17.50;58.70;;;;;;4955728;29;20039;-69
2022/05/24 13:00:00;;;;;;;;;;;17.50;58.70;;;;;;4955794;28;20027;-69
2022/05/24 13:02:34;;;;;;;4.50;0.75;;;17.50;59.00;;;;;;4955752;28;20355;-69
2022/05/24 13:05:23;;;;;;;4.25;0.70;;;17.50;58.50;;;;;;4955638;29;20027;-69
2022/05/24 13:07:51;;;;;;;4.15;0.65;;;17.50;58.70;;;;;;4955689;29;20034;-70
2022/05/24 13:10:26;;;;;;;2.67;0.40;;;17.50;58.50;;;;;;4956682;29;20035;-69
2022/05/24 13:13:13;;;;;;;2.05;0.47;;;17.50;58.40;;;;;;4956401;29;20055;-69
2022/05/24 13:15:50;;;;;;;2.28;0.47;;;17.50;58.30;;;;;;4955470;29;20110;-69
2022/05/24 13:18:21;;;;;;;4.18;0.50;;;17.50;58.00;;;;;;4955420;29;20549;-70
2022/05/24 13:21:04;;;;;;;2.30;0.47;;;17.50;57.70;;;;;;4966879;28;20023;-70
2022/05/24 13:23:33;;;;;;;3.63;0.90;;;17.50;57.70;;;;;;4971395;28;20027;-69
2022/05/24 13:26:02;;;;;;;1.98;0.40;;;17.50;57.30;;;;;;4956676;29;20035;-69
2022/05/24 13:28:35;;;;;;;4.88;0.68;;;17.50;57.50;;;;;;4956189;29;20046;-69
2022/05/24 13:34:33;;;;;;;2.40;0.50;;;17.50;57.50;;;;;;4956597;29;20034;-69
2022/05/24 13:37:11;;;;;;;2.30;0.40;;;17.50;57.70;;;;;;4970969;28;20098;-69
2022/05/24 13:39:39;;;;;;;1.73;0.50;;;17.60;57.90;;;;;;4954948;29;20098;-69
2022/05/24 13:42:17;;;;;;;3.45;0.55;;;17.60;58.10;;;;;;4955984;29;20031;-70
2022/05/24 13:45:04;;;;;;;3.95;0.45;;;17.60;58.10;;;;;;4955812;29;20411;-69
2022/05/24 13:47:41;;;;;;;0.85;0.30;;;17.60;58.00;;;;;;4970784;28;20062;-70